Iuka, KS (67066)

1:05 AM CST on March 04, 2015 (GMT -0600)
Pratt Industrial | Change Station
CLOSE
Current Station
Airport
Location: Pratt,
Elevation: 1952 ft
Nearby Weather Stations
Active Advisory: Winter Weather Advisory

Elev 1952 ft 37.70 °N, 98.75 °W | Updated 10 minutes ago

Overcast
Overcast
28 °F
Feels Like 16 °F
N
17
Wind Variable Wind from NNE
Gusts 26 mph

Today
High -- | Low -- °F
--% Chance of Precip.
Yesterday
High -- | Low -- °F
Precip. -- in
7:02 AM 6:31 PM
Waxing Gibbous, 98% visible
Pressure 30.04 in
Visibility 10.0 miles
Clouds Overcast 3600 ft
Windchill 16 °F
Dew Point 12 °F
Humidity 51%
Rainfall 0.00 in
Snow Depth Not available.
UV 0 out of 12
Pollen 3.90 out of 12
Air Quality Not available.
Flu Activity Not available.
METAR KPTT 040655Z AUTO 03015G23KT 10SM OVC036 M02/M11 A3004 RMK AO2

More Conditions Fewer Conditions

Pressure 30.04 in
Visibility 10.0 miles
Clouds Overcast 3600 ft
Windchill 16 °F
Dew Point 12 °F
Humidity 51%
Rainfall 0.00 in
Snow Depth Not available.
UV 0 out of 12
Pollen 3.90 out of 12
Air Quality Not available.
Flu Activity Not available.
METAR KPTT 040655Z AUTO 03015G23KT 10SM OVC036 M02/M11 A3004 RMK AO2

More Conditions Fewer Conditions

10-Day Weather Forecast

Almanac

Astronomy

Mar. 04, 2015 Rise Set
Actual Time
Civil Twilight
Nautical Twilight
Astronomical Twilight
Moon
Length of Visible Light
Length of Day
Tomorrow will be .
, % of the Moon is Illuminated

Today's Extremes

State Highs State Lows

Community

WunderPhotos

Upload Photos

1,802,402 photos uploaded!

WunderBlogs® & News

Nearby

Air Quality

  Air Quality AQ Index Pollutant
Not available.

Snow Depth

Station Depth Elevation

Earthquake Activity

City Distance Mag. Time & Date
Minimum magnitude displayed is 2.5.

Coastal Water Temperatures

Place Temperature

Nearby Weather Stations

Winter Weather Advisory
Statement as of 1:11 PM CST on March 03, 2015

... Winter Weather Advisory in effect from midnight tonight to
6 PM CST Wednesday...

The National Weather Service in Dodge City has issued a Winter
Weather Advisory for snow... which is in effect from midnight
tonight to 6 PM CST Wednesday.

* Timing... most of the snow accumulation will be through the
overnight into Wednesday morning.

* Snow amounts... 2 to 5 inches across the Highway 56 corridor.

* Other impacts... snow covered roads causing hazardous travel
conditions.

Precautionary/preparedness actions...

A Winter Weather Advisory for snow means that periods of snow
will cause primarily travel difficulties. Be prepared for snow
covered roads and limited visibilities... and use caution while
driving.



Ksug